FDX251 KSFO-KLAX
Flight info
| Callsign | FDX251 |
|---|---|
| Flight time | 0h 55m |
| Altitude | 33000 |
| Route | WESLA5 SUSEY EBAYE BURGL IRNMN2 |
| Aircraft | B77L/H-SDE1E2E3FGHIJ2J3J4J5M1RWXY/LB1D1 |
Departure
| Time | 2026-04-24 05:15 |
|---|---|
| Airport | San Francisco International Airport (KSFO) |
Arrival
| Time | 2026-04-24 06:10 |
|---|---|
| Airport | Los Angeles International Airport (KLAX) |
| Time | Latitude | Longitude | Altitude | Speed | Heading |
|---|---|---|---|---|---|
| 2026-04-24 04:49 | 37.61930 | -122.39734 | 22 ft | 0 kts | 255° |
| 2026-04-24 04:56 | 37.61931 | -122.39729 | 22 ft | 2 kts | 254° |
| 2026-04-24 04:57 | 37.61937 | -122.39706 | 23 ft | 3 kts | 244° |
| 2026-04-24 04:57 | 37.61947 | -122.39685 | 26 ft | 3 kts | 231° |
| 2026-04-24 04:57 | 37.61960 | -122.39667 | 26 ft | 3 kts | 216° |
| 2026-04-24 04:57 | 37.61976 | -122.39655 | 26 ft | 3 kts | 198° |
| 2026-04-24 04:58 | 37.61994 | -122.39649 | 26 ft | 3 kts | 178° |
| 2026-04-24 04:58 | 37.62010 | -122.39651 | 26 ft | 2 kts | 162° |
| 2026-04-24 04:58 | 37.62011 | -122.39652 | 27 ft | 1 kts | 162° |
| 2026-04-24 05:02 | 37.61997 | -122.39646 | 23 ft | 5 kts | 162° |
| 2026-04-24 05:02 | 37.61949 | -122.39615 | 25 ft | 10 kts | 128° |
| 2026-04-24 05:02 | 37.61961 | -122.39518 | 22 ft | 14 kts | 72° |
| 2026-04-24 05:03 | 37.61991 | -122.39396 | 23 ft | 15 kts | 73° |
| 2026-04-24 05:03 | 37.62022 | -122.39271 | 23 ft | 15 kts | 68° |
| 2026-04-24 05:03 | 37.62101 | -122.39189 | 20 ft | 15 kts | 28° |
| 2026-04-24 05:03 | 37.62191 | -122.39128 | 21 ft | 13 kts | 29° |
| 2026-04-24 05:04 | 37.62243 | -122.39036 | 23 ft | 13 kts | 72° |
| 2026-04-24 05:04 | 37.62263 | -122.38924 | 19 ft | 13 kts | 93° |
| 2026-04-24 05:04 | 37.62225 | -122.38819 | 20 ft | 14 kts | 117° |
| 2026-04-24 05:04 | 37.62180 | -122.38711 | 20 ft | 14 kts | 117° |
| 2026-04-24 05:05 | 37.62135 | -122.38604 | 26 ft | 14 kts | 117° |
| 2026-04-24 05:05 | 37.62090 | -122.38497 | 25 ft | 14 kts | 118° |
| 2026-04-24 05:05 | 37.62041 | -122.38380 | 32 ft | 15 kts | 118° |
| 2026-04-24 05:05 | 37.61991 | -122.38261 | 27 ft | 15 kts | 118° |
| 2026-04-24 05:06 | 37.61940 | -122.38140 | 31 ft | 15 kts | 118° |
| 2026-04-24 05:06 | 37.61890 | -122.38022 | 27 ft | 15 kts | 118° |
| 2026-04-24 05:06 | 37.61840 | -122.37899 | 25 ft | 16 kts | 114° |
| 2026-04-24 05:06 | 37.61797 | -122.37761 | 26 ft | 17 kts | 110° |
| 2026-04-24 05:07 | 37.61754 | -122.37618 | 29 ft | 17 kts | 110° |
| 2026-04-24 05:07 | 37.61706 | -122.37476 | 27 ft | 17 kts | 116° |
| 2026-04-24 05:07 | 37.61649 | -122.37341 | 26 ft | 17 kts | 118° |
| 2026-04-24 05:07 | 37.61587 | -122.37197 | 27 ft | 21 kts | 118° |
| 2026-04-24 05:08 | 37.61507 | -122.37007 | 27 ft | 25 kts | 120° |
| 2026-04-24 05:08 | 37.61400 | -122.36834 | 27 ft | 25 kts | 130° |
| 2026-04-24 05:08 | 37.61308 | -122.36645 | 23 ft | 25 kts | 118° |
| 2026-04-24 05:08 | 37.61226 | -122.36448 | 20 ft | 25 kts | 117° |
| 2026-04-24 05:09 | 37.61145 | -122.36254 | 24 ft | 25 kts | 117° |
| 2026-04-24 05:09 | 37.61076 | -122.36086 | 28 ft | 18 kts | 117° |
| 2026-04-24 05:09 | 37.61058 | -122.35953 | 23 ft | 15 kts | 70° |
| 2026-04-24 05:09 | 37.61090 | -122.35911 | 25 ft | 0 kts | 29° |
| 2026-04-24 05:10 | 37.61091 | -122.35911 | 25 ft | 1 kts | 29° |
| 2026-04-24 05:10 | 37.61144 | -122.35878 | 26 ft | 12 kts | 13° |
| 2026-04-24 05:10 | 37.61208 | -122.35932 | 26 ft | 3 kts | 296° |
| 2026-04-24 05:14 | 37.61210 | -122.35936 | 27 ft | 5 kts | 296° |
| 2026-04-24 05:14 | 37.61344 | -122.36253 | 18 ft | 79 kts | 297° |
| 2026-04-24 05:15 | 37.61704 | -122.37110 | 29 ft | 140 kts | 298° |
| 2026-04-24 05:15 | 37.62221 | -122.38335 | 266 ft | 165 kts | 298° |
| 2026-04-24 05:15 | 37.62803 | -122.39651 | 661 ft | 183 kts | 297° |
| 2026-04-24 05:15 | 37.63413 | -122.41144 | 1057 ft | 200 kts | 297° |
| 2026-04-24 05:16 | 37.64043 | -122.42763 | 1695 ft | 207 kts | 296° |
| 2026-04-24 05:16 | 37.64676 | -122.44416 | 2355 ft | 215 kts | 299° |
| 2026-04-24 05:16 | 37.65427 | -122.46152 | 2783 ft | 234 kts | 301° |
| 2026-04-24 05:16 | 37.66246 | -122.47975 | 3413 ft | 243 kts | 300° |
| 2026-04-24 05:17 | 37.66802 | -122.50038 | 4054 ft | 257 kts | 276° |
| 2026-04-24 05:17 | 37.66522 | -122.52320 | 4542 ft | 277 kts | 244° |
| 2026-04-24 05:17 | 37.65279 | -122.54066 | 5670 ft | 267 kts | 211° |
| 2026-04-24 05:17 | 37.63535 | -122.54796 | 6531 ft | 272 kts | 182° |
| 2026-04-24 05:18 | 37.61655 | -122.54348 | 7206 ft | 275 kts | 156° |
| 2026-04-24 05:18 | 37.59904 | -122.53395 | 8028 ft | 273 kts | 154° |
| 2026-04-24 05:18 | 37.58175 | -122.52416 | 8891 ft | 276 kts | 154° |
| 2026-04-24 05:18 | 37.56388 | -122.51393 | 9534 ft | 284 kts | 154° |
| 2026-04-24 05:19 | 37.54606 | -122.50377 | 10292 ft | 287 kts | 155° |
| 2026-04-24 05:19 | 37.52720 | -122.49364 | 10833 ft | 299 kts | 157° |
| 2026-04-24 05:19 | 37.50767 | -122.48374 | 11470 ft | 309 kts | 158° |
| 2026-04-24 05:19 | 37.48758 | -122.47123 | 11701 ft | 336 kts | 147° |
| 2026-04-24 05:20 | 37.46867 | -122.45292 | 12153 ft | 353 kts | 134° |
| 2026-04-24 05:20 | 37.45213 | -122.42920 | 12685 ft | 368 kts | 129° |
| 2026-04-24 05:20 | 37.43511 | -122.40369 | 12621 ft | 399 kts | 130° |
| 2026-04-24 05:20 | 37.41697 | -122.37742 | 13840 ft | 395 kts | 131° |
| 2026-04-24 05:21 | 37.39879 | -122.35170 | 14754 ft | 398 kts | 132° |
| 2026-04-24 05:21 | 37.37992 | -122.32548 | 15547 ft | 406 kts | 133° |
| 2026-04-24 05:21 | 37.36061 | -122.29899 | 16301 ft | 414 kts | 133° |
| 2026-04-24 05:21 | 37.34085 | -122.27210 | 17084 ft | 421 kts | 133° |
| 2026-04-24 05:22 | 37.32092 | -122.24509 | 17880 ft | 427 kts | 134° |
| 2026-04-24 05:22 | 37.30048 | -122.21745 | 18626 ft | 433 kts | 134° |
| 2026-04-24 05:22 | 37.28011 | -122.18994 | 19026 ft | 436 kts | 134° |
| 2026-04-24 05:22 | 37.25917 | -122.16166 | 19197 ft | 442 kts | 134° |
| 2026-04-24 05:23 | 37.23834 | -122.13355 | 19921 ft | 446 kts | 135° |
| 2026-04-24 05:23 | 37.21709 | -122.10490 | 20692 ft | 449 kts | 135° |
| 2026-04-24 05:23 | 37.19568 | -122.07603 | 21376 ft | 455 kts | 135° |
| 2026-04-24 05:23 | 37.17400 | -122.04688 | 21984 ft | 461 kts | 135° |
| 2026-04-24 05:24 | 37.15186 | -122.01709 | 22641 ft | 467 kts | 136° |
| 2026-04-24 05:24 | 37.12952 | -121.98707 | 23327 ft | 472 kts | 136° |
| 2026-04-24 05:24 | 37.10720 | -121.95710 | 23934 ft | 476 kts | 136° |
| 2026-04-24 05:24 | 37.08434 | -121.92643 | 24454 ft | 482 kts | 136° |
| 2026-04-24 05:25 | 37.06130 | -121.89555 | 24988 ft | 487 kts | 136° |
| 2026-04-24 05:25 | 37.03803 | -121.86436 | 25550 ft | 491 kts | 136° |
| 2026-04-24 05:25 | 37.01471 | -121.83316 | 26053 ft | 496 kts | 136° |
| 2026-04-24 05:25 | 36.99089 | -121.80134 | 26524 ft | 502 kts | 137° |
| 2026-04-24 05:26 | 36.96705 | -121.76951 | 27023 ft | 506 kts | 137° |
| 2026-04-24 05:26 | 36.94278 | -121.73715 | 27559 ft | 510 kts | 137° |
| 2026-04-24 05:26 | 36.91864 | -121.70498 | 28051 ft | 514 kts | 137° |
| 2026-04-24 05:26 | 36.89384 | -121.67198 | 28513 ft | 519 kts | 137° |
| 2026-04-24 05:27 | 36.86926 | -121.63928 | 28992 ft | 524 kts | 137° |
| 2026-04-24 05:27 | 36.84401 | -121.60573 | 29529 ft | 526 kts | 137° |
| 2026-04-24 05:27 | 36.81901 | -121.57252 | 30226 ft | 525 kts | 138° |
| 2026-04-24 05:27 | 36.79431 | -121.53972 | 30898 ft | 521 kts | 138° |
| 2026-04-24 05:28 | 36.76944 | -121.50673 | 31552 ft | 519 kts | 138° |
| 2026-04-24 05:28 | 36.74476 | -121.47406 | 32160 ft | 517 kts | 138° |
| 2026-04-24 05:28 | 36.72839 | -121.45240 | 32541 ft | 516 kts | 139° |
| 2026-04-24 05:28 | 36.69564 | -121.40916 | 33149 ft | 515 kts | 139° |
| 2026-04-24 05:29 | 36.67088 | -121.37653 | 33090 ft | 517 kts | 139° |
| 2026-04-24 05:29 | 36.62981 | -121.32243 | 33100 ft | 514 kts | 139° |
| 2026-04-24 05:30 | 36.58052 | -121.25760 | 33096 ft | 513 kts | 139° |
| 2026-04-24 05:30 | 36.53157 | -121.19335 | 33108 ft | 512 kts | 139° |
| 2026-04-24 05:31 | 36.48257 | -121.12916 | 33091 ft | 512 kts | 139° |
| 2026-04-24 05:31 | 36.43360 | -121.06512 | 33076 ft | 512 kts | 139° |
| 2026-04-24 05:32 | 36.38599 | -120.99919 | 33081 ft | 514 kts | 135° |
| 2026-04-24 05:32 | 36.33978 | -120.93144 | 33076 ft | 515 kts | 135° |
| 2026-04-24 05:33 | 36.29344 | -120.86398 | 33092 ft | 515 kts | 135° |
| 2026-04-24 05:33 | 36.24658 | -120.79672 | 33086 ft | 515 kts | 136° |
| 2026-04-24 05:34 | 36.17628 | -120.69642 | 33063 ft | 514 kts | 136° |
| 2026-04-24 05:34 | 36.12950 | -120.62979 | 33073 ft | 512 kts | 136° |
| 2026-04-24 05:35 | 36.08247 | -120.56294 | 33067 ft | 513 kts | 135° |
| 2026-04-24 05:35 | 36.03579 | -120.49668 | 33070 ft | 513 kts | 136° |
| 2026-04-24 05:36 | 35.98898 | -120.43040 | 33057 ft | 512 kts | 136° |
| 2026-04-24 05:36 | 35.94220 | -120.36424 | 33065 ft | 513 kts | 136° |
| 2026-04-24 05:37 | 35.89477 | -120.29784 | 33057 ft | 512 kts | 139° |
| 2026-04-24 05:37 | 35.84168 | -120.24058 | 33058 ft | 503 kts | 149° |
| 2026-04-24 05:38 | 35.78295 | -120.19520 | 33060 ft | 497 kts | 155° |
| 2026-04-24 05:38 | 35.72389 | -120.15162 | 33048 ft | 497 kts | 155° |
| 2026-04-24 05:39 | 35.66476 | -120.10714 | 33045 ft | 497 kts | 154° |
| 2026-04-24 05:39 | 35.60591 | -120.06269 | 33052 ft | 497 kts | 154° |
| 2026-04-24 05:40 | 35.54690 | -120.01813 | 33058 ft | 496 kts | 154° |
| 2026-04-24 05:40 | 35.48816 | -119.97386 | 33056 ft | 497 kts | 155° |
| 2026-04-24 05:41 | 35.42932 | -119.92961 | 33047 ft | 497 kts | 155° |
| 2026-04-24 05:41 | 35.37042 | -119.88538 | 33055 ft | 497 kts | 155° |
| 2026-04-24 05:42 | 35.31189 | -119.84146 | 33030 ft | 484 kts | 155° |
| 2026-04-24 05:42 | 35.25619 | -119.79696 | 32138 ft | 482 kts | 149° |
| 2026-04-24 05:43 | 35.22991 | -119.77213 | 31677 ft | 472 kts | 147° |
| 2026-04-24 05:43 | 35.20448 | -119.74726 | 31217 ft | 468 kts | 147° |
| 2026-04-24 05:43 | 35.17896 | -119.72239 | 30767 ft | 465 kts | 147° |
| 2026-04-24 05:43 | 35.15385 | -119.69831 | 30336 ft | 461 kts | 148° |
| 2026-04-24 05:44 | 35.12844 | -119.67430 | 29846 ft | 457 kts | 148° |
| 2026-04-24 05:44 | 35.10327 | -119.65077 | 29343 ft | 453 kts | 148° |
| 2026-04-24 05:44 | 35.07841 | -119.62765 | 28908 ft | 448 kts | 148° |
| 2026-04-24 05:44 | 35.05366 | -119.60467 | 28464 ft | 444 kts | 148° |
| 2026-04-24 05:45 | 35.02931 | -119.58208 | 28027 ft | 439 kts | 148° |
| 2026-04-24 05:45 | 35.00497 | -119.55949 | 27597 ft | 435 kts | 148° |
| 2026-04-24 05:45 | 34.98112 | -119.53736 | 27176 ft | 432 kts | 148° |
| 2026-04-24 05:45 | 34.95723 | -119.51521 | 26751 ft | 429 kts | 148° |
| 2026-04-24 05:46 | 34.93346 | -119.49318 | 26330 ft | 426 kts | 148° |
| 2026-04-24 05:46 | 34.91014 | -119.47162 | 25925 ft | 423 kts | 148° |
| 2026-04-24 05:46 | 34.88650 | -119.45024 | 25499 ft | 420 kts | 149° |
| 2026-04-24 05:46 | 34.86316 | -119.42943 | 25101 ft | 417 kts | 148° |
| 2026-04-24 05:47 | 34.83971 | -119.40857 | 24686 ft | 415 kts | 148° |
| 2026-04-24 05:47 | 34.81638 | -119.38779 | 24264 ft | 413 kts | 148° |
| 2026-04-24 05:47 | 34.79328 | -119.36715 | 23846 ft | 411 kts | 148° |
| 2026-04-24 05:47 | 34.77043 | -119.34674 | 23390 ft | 409 kts | 148° |
| 2026-04-24 05:48 | 34.74752 | -119.32630 | 22942 ft | 407 kts | 148° |
| 2026-04-24 05:48 | 34.72487 | -119.30637 | 22523 ft | 403 kts | 148° |
| 2026-04-24 05:48 | 34.70209 | -119.28651 | 22103 ft | 400 kts | 148° |
| 2026-04-24 05:48 | 34.67942 | -119.26675 | 21694 ft | 396 kts | 148° |
| 2026-04-24 05:49 | 34.65731 | -119.24746 | 21306 ft | 393 kts | 148° |
| 2026-04-24 05:49 | 34.63511 | -119.22817 | 20919 ft | 389 kts | 149° |
| 2026-04-24 05:49 | 34.61326 | -119.20934 | 20524 ft | 386 kts | 149° |
| 2026-04-24 05:49 | 34.59132 | -119.19046 | 20152 ft | 383 kts | 149° |
| 2026-04-24 05:50 | 34.56956 | -119.17174 | 19751 ft | 380 kts | 149° |
| 2026-04-24 05:50 | 34.54820 | -119.15315 | 19385 ft | 378 kts | 148° |
| 2026-04-24 05:50 | 34.52700 | -119.13435 | 19011 ft | 376 kts | 148° |
| 2026-04-24 05:50 | 34.50606 | -119.11572 | 18630 ft | 374 kts | 148° |
| 2026-04-24 05:51 | 34.48502 | -119.09703 | 18224 ft | 372 kts | 148° |
| 2026-04-24 05:51 | 34.46433 | -119.07872 | 17815 ft | 370 kts | 148° |
| 2026-04-24 05:51 | 34.44354 | -119.06033 | 17412 ft | 366 kts | 148° |
| 2026-04-24 05:51 | 34.42310 | -119.04248 | 17055 ft | 364 kts | 148° |
| 2026-04-24 05:52 | 34.40246 | -119.02465 | 16683 ft | 362 kts | 148° |
| 2026-04-24 05:52 | 34.38213 | -119.00709 | 16325 ft | 361 kts | 148° |
| 2026-04-24 05:52 | 34.36173 | -118.98945 | 15959 ft | 357 kts | 148° |
| 2026-04-24 05:52 | 34.34171 | -118.97213 | 15610 ft | 354 kts | 147° |
| 2026-04-24 05:53 | 34.32189 | -118.95438 | 15247 ft | 354 kts | 146° |
| 2026-04-24 05:53 | 34.30212 | -118.93631 | 14900 ft | 353 kts | 146° |
| 2026-04-24 05:53 | 34.28269 | -118.91858 | 14551 ft | 351 kts | 146° |
| 2026-04-24 05:53 | 34.26317 | -118.90084 | 14201 ft | 347 kts | 146° |
| 2026-04-24 05:54 | 34.24417 | -118.88353 | 13853 ft | 344 kts | 146° |
| 2026-04-24 05:54 | 34.22503 | -118.86593 | 13472 ft | 343 kts | 145° |
| 2026-04-24 05:54 | 34.20617 | -118.84857 | 13111 ft | 342 kts | 145° |
| 2026-04-24 05:54 | 34.18719 | -118.83113 | 12762 ft | 338 kts | 145° |
| 2026-04-24 05:55 | 34.16850 | -118.81398 | 12405 ft | 334 kts | 145° |
| 2026-04-24 05:55 | 34.15083 | -118.79645 | 12130 ft | 329 kts | 141° |
| 2026-04-24 05:55 | 34.13390 | -118.77790 | 11759 ft | 326 kts | 139° |
| 2026-04-24 05:55 | 34.11763 | -118.75972 | 11408 ft | 312 kts | 139° |
| 2026-04-24 05:56 | 34.10170 | -118.74208 | 11115 ft | 305 kts | 140° |
| 2026-04-24 05:56 | 34.08617 | -118.72507 | 10810 ft | 302 kts | 140° |
| 2026-04-24 05:56 | 34.07050 | -118.70802 | 10519 ft | 301 kts | 140° |
| 2026-04-24 05:56 | 34.05490 | -118.69109 | 10217 ft | 301 kts | 140° |
| 2026-04-24 05:57 | 34.03975 | -118.67431 | 9906 ft | 294 kts | 134° |
| 2026-04-24 05:57 | 34.02931 | -118.65336 | 9571 ft | 290 kts | 108° |
| 2026-04-24 05:57 | 34.02595 | -118.62988 | 9308 ft | 284 kts | 96° |
| 2026-04-24 05:57 | 34.02396 | -118.60623 | 9016 ft | 282 kts | 96° |
| 2026-04-24 05:58 | 34.02187 | -118.58274 | 8735 ft | 282 kts | 96° |
| 2026-04-24 05:58 | 34.01971 | -118.55915 | 8447 ft | 280 kts | 96° |
| 2026-04-24 05:58 | 34.01758 | -118.53601 | 8151 ft | 275 kts | 96° |
| 2026-04-24 05:58 | 34.01547 | -118.51333 | 7887 ft | 273 kts | 97° |
| 2026-04-24 05:59 | 34.01337 | -118.49099 | 7651 ft | 266 kts | 97° |
| 2026-04-24 05:59 | 34.01128 | -118.46889 | 7355 ft | 261 kts | 96° |
| 2026-04-24 05:59 | 34.01097 | -118.44751 | 7072 ft | 250 kts | 81° |
| 2026-04-24 05:59 | 34.01435 | -118.42746 | 6846 ft | 242 kts | 77° |
| 2026-04-24 06:00 | 34.01816 | -118.40766 | 6604 ft | 240 kts | 77° |
| 2026-04-24 06:00 | 34.02178 | -118.38802 | 6357 ft | 238 kts | 78° |
| 2026-04-24 06:00 | 34.02519 | -118.36888 | 6105 ft | 234 kts | 78° |
| 2026-04-24 06:00 | 34.02829 | -118.35000 | 6041 ft | 225 kts | 82° |
| 2026-04-24 06:01 | 34.03026 | -118.33131 | 6014 ft | 229 kts | 83° |
| 2026-04-24 06:01 | 34.03214 | -118.31194 | 6019 ft | 234 kts | 83° |
| 2026-04-24 06:01 | 34.03408 | -118.29227 | 5993 ft | 237 kts | 83° |
| 2026-04-24 06:01 | 34.03616 | -118.27273 | 5902 ft | 237 kts | 83° |
| 2026-04-24 06:02 | 34.03823 | -118.25309 | 5801 ft | 234 kts | 83° |
| 2026-04-24 06:02 | 34.04025 | -118.23392 | 5714 ft | 231 kts | 83° |
| 2026-04-24 06:02 | 34.04231 | -118.21441 | 5570 ft | 234 kts | 83° |
| 2026-04-24 06:02 | 34.04435 | -118.19500 | 5366 ft | 236 kts | 82° |
| 2026-04-24 06:03 | 34.04647 | -118.17536 | 5107 ft | 239 kts | 82° |
| 2026-04-24 06:03 | 34.04869 | -118.15545 | 4846 ft | 235 kts | 82° |
| 2026-04-24 06:03 | 34.05086 | -118.13624 | 4532 ft | 230 kts | 82° |
| 2026-04-24 06:03 | 34.05055 | -118.11736 | 4195 ft | 224 kts | 109° |
| 2026-04-24 06:04 | 34.04222 | -118.10214 | 3914 ft | 221 kts | 142° |
| 2026-04-24 06:04 | 34.02829 | -118.09454 | 3689 ft | 221 kts | 177° |
| 2026-04-24 06:04 | 34.01344 | -118.09788 | 3641 ft | 219 kts | 209° |
| 2026-04-24 06:04 | 34.00065 | -118.10782 | 3616 ft | 223 kts | 217° |
| 2026-04-24 06:05 | 33.98816 | -118.11909 | 3642 ft | 222 kts | 218° |
| 2026-04-24 06:05 | 33.97601 | -118.13021 | 3608 ft | 219 kts | 218° |
| 2026-04-24 06:05 | 33.96577 | -118.14273 | 3563 ft | 202 kts | 245° |
| 2026-04-24 06:05 | 33.96189 | -118.15832 | 3609 ft | 196 kts | 257° |
| 2026-04-24 06:06 | 33.95901 | -118.17444 | 3493 ft | 197 kts | 260° |
| 2026-04-24 06:06 | 33.95695 | -118.19082 | 3229 ft | 195 kts | 262° |
| 2026-04-24 06:06 | 33.95528 | -118.20667 | 2972 ft | 190 kts | 263° |
| 2026-04-24 06:06 | 33.95368 | -118.22233 | 2732 ft | 184 kts | 263° |
| 2026-04-24 06:07 | 33.95214 | -118.23752 | 2514 ft | 187 kts | 263° |
| 2026-04-24 06:07 | 33.95053 | -118.25339 | 2267 ft | 191 kts | 263° |
| 2026-04-24 06:07 | 33.94894 | -118.26901 | 2018 ft | 181 kts | 263° |
| 2026-04-24 06:07 | 33.94747 | -118.28349 | 1758 ft | 170 kts | 263° |
| 2026-04-24 06:08 | 33.94609 | -118.29707 | 1555 ft | 155 kts | 263° |
| 2026-04-24 06:08 | 33.94481 | -118.30956 | 1364 ft | 150 kts | 263° |
| 2026-04-24 06:08 | 33.94354 | -118.32204 | 1161 ft | 150 kts | 262° |
| 2026-04-24 06:08 | 33.94228 | -118.33447 | 952 ft | 148 kts | 262° |
| 2026-04-24 06:09 | 33.94105 | -118.34657 | 745 ft | 146 kts | 262° |
| 2026-04-24 06:09 | 33.93981 | -118.35874 | 545 ft | 145 kts | 262° |
| 2026-04-24 06:09 | 33.93861 | -118.37073 | 363 ft | 145 kts | 261° |
| 2026-04-24 06:09 | 33.93729 | -118.38289 | 174 ft | 146 kts | 262° |
| 2026-04-24 06:10 | 33.93614 | -118.39452 | 127 ft | 130 kts | 264° |
| 2026-04-24 06:10 | 33.93517 | -118.40392 | 129 ft | 95 kts | 263° |
| 2026-04-24 06:10 | 33.93455 | -118.41003 | 129 ft | 41 kts | 262° |
| 2026-04-24 06:11 | 33.93322 | -118.41124 | 126 ft | 22 kts | 85° |
| 2026-04-24 06:11 | 33.93339 | -118.40946 | 130 ft | 22 kts | 83° |
| 2026-04-24 06:11 | 33.93357 | -118.40767 | 129 ft | 22 kts | 82° |
| 2026-04-24 06:11 | 33.93378 | -118.40589 | 125 ft | 22 kts | 82° |
| 2026-04-24 06:12 | 33.93394 | -118.40408 | 126 ft | 22 kts | 82° |